Time;durP1;ratioP1;P1;durP2;ratioP2;P2;SDS_P1;SDS_P2;PMS_P1;PMS_P2;Temp;Humidity;BMP_temperature;BMP_pressure;BME280_temperature;BME280_humidity;BME280_pressure;Samples;Min_cycle;Max_cycle;Signal;HPM_P1;HPM_P2
2023/01/20 00:00:40;;;;;;;7.70;6.43;;;3.30;99.90;;;;;;5093174;28;20522;-61
2023/01/20 00:03:06;;;;;;;1.98;1.77;;;3.30;99.90;;;;;;5093545;28;20016;-61
2023/01/20 00:05:32;;;;;;;39.55;35.28;;;3.30;99.90;;;;;;5093532;28;20044;-61
2023/01/20 00:07:57;;;;;;;22.55;20.05;;;3.20;99.90;;;;;;5092463;28;20041;-61
2023/01/20 00:10:23;;;;;;;11.30;10.13;;;3.00;99.90;;;;;;5092404;28;20530;-61
2023/01/20 00:12:49;;;;;;;4.65;3.97;;;2.90;99.90;;;;;;5092896;28;20031;-60
2023/01/20 00:15:15;;;;;;;3.40;3.10;;;2.90;99.90;;;;;;5093343;28;20040;-61
2023/01/20 00:17:40;;;;;;;23.60;19.27;;;2.80;99.90;;;;;;5092996;28;20020;-61
2023/01/20 00:20:07;;;;;;;99.03;59.30;;;2.80;99.90;;;;;;5092892;28;20391;-61
2023/01/20 00:22:33;;;;;;;10.30;6.82;;;2.80;99.90;;;;;;5092358;28;20111;-61
2023/01/20 00:24:58;;;;;;;7.22;4.57;;;2.80;99.90;;;;;;5092883;28;20099;-61
2023/01/20 00:27:24;;;;;;;16.30;10.60;;;2.70;99.90;;;;;;5092785;28;20028;-60
2023/01/20 00:29:50;;;;;;;6.18;4.35;;;2.60;99.90;;;;;;5092830;28;20476;-61
2023/01/20 00:32:15;;;;;;;23.73;12.13;;;2.60;99.90;;;;;;5092668;28;20434;-60
2023/01/20 00:34:41;;;;;;;31.33;16.48;;;2.40;99.90;;;;;;5092944;28;20055;-61
2023/01/20 00:37:07;;;;;;;100.50;44.30;;;2.30;99.90;;;;;;5092323;28;20050;-61
2023/01/20 00:39:32;;;;;;;198.82;88.50;;;2.20;99.90;;;;;;5092531;28;20369;-61
2023/01/20 00:41:58;;;;;;;74.28;31.17;;;2.00;99.90;;;;;;5092527;28;20017;-61
2023/01/20 00:44:24;;;;;;;224.95;98.07;;;1.90;99.90;;;;;;5092510;28;20069;-61
2023/01/20 00:46:49;;;;;;;75.00;34.83;;;1.80;99.90;;;;;;5092660;28;20025;-61
2023/01/20 00:49:15;;;;;;;70.68;33.45;;;1.60;99.90;;;;;;5092421;28;20035;-61
2023/01/20 00:51:41;;;;;;;57.08;29.42;;;1.60;99.90;;;;;;5092024;28;20057;-61
2023/01/20 00:54:06;;;;;;;63.35;35.38;;;1.50;99.90;;;;;;5092274;28;20508;-61
2023/01/20 00:56:32;;;;;;;125.47;69.25;;;1.50;99.90;;;;;;5092331;28;20028;-61
2023/01/20 00:58:58;;;;;;;143.93;76.80;;;1.50;99.90;;;;;;5092768;28;20024;-60
2023/01/20 01:01:24;;;;;;;86.38;50.25;;;1.40;99.90;;;;;;5092418;28;20028;-61
2023/01/20 01:03:53;;;;;;;422.20;244.93;;;1.40;99.90;;;;;;5092358;28;20464;-61
2023/01/20 01:06:19;;;;;;;145.85;84.20;;;1.30;99.90;;;;;;5091637;28;20024;-60
2023/01/20 01:08:45;;;;;;;112.60;65.68;;;1.30;99.90;;;;;;5092669;28;20392;-61
2023/01/20 01:11:11;;;;;;;225.68;134.13;;;1.10;99.90;;;;;;5092157;28;20396;-61
2023/01/20 01:13:38;;;;;;;108.22;65.05;;;1.10;99.90;;;;;;5091980;28;20038;-61
2023/01/20 01:16:09;;;;;;;376.98;247.50;;;1.10;99.90;;;;;;5092157;28;20492;-61
2023/01/20 01:18:34;;;;;;;79.80;49.53;;;1.00;99.90;;;;;;5092116;28;20028;-60
2023/01/20 01:21:06;;;;;;;271.50;162.10;;;1.00;99.90;;;;;;5091698;28;20036;-61
2023/01/20 01:23:31;;;;;;;518.75;332.63;;;0.80;99.90;;;;;;5096151;28;20107;-61
2023/01/20 01:25:57;;;;;;;785.97;534.05;;;0.80;99.90;;;;;;5096580;28;20127;-61
2023/01/20 01:28:23;;;;;;;279.55;176.65;;;0.70;99.90;;;;;;5096265;28;20021;-61
2023/01/20 01:30:48;;;;;;;249.70;139.38;;;0.50;99.90;;;;;;5096138;28;20377;-61
2023/01/20 01:33:14;;;;;;;1152.70;735.10;;;0.30;99.90;;;;;;5095654;28;20095;-61
2023/01/20 01:35:40;;;;;;;201.20;128.48;;;0.50;99.90;;;;;;5095945;28;20040;-61
2023/01/20 01:38:05;;;;;;;131.63;87.22;;;0.60;99.90;;;;;;5096168;28;20016;-61
2023/01/20 01:40:33;;;;;;;110.05;75.72;;;0.60;99.90;;;;;;5096382;28;20032;-61
2023/01/20 01:42:58;;;;;;;17.35;14.45;;;0.50;99.90;;;;;;5095768;28;20058;-61
2023/01/20 01:45:27;;;;;;;225.18;160.27;;;0.50;99.90;;;;;;5094552;28;20056;-61
2023/01/20 01:48:06;;;;;;;236.25;174.00;;;0.40;99.90;;;;;;5095737;28;20032;-60
2023/01/20 01:50:41;;;;;;;81.22;52.10;;;0.40;99.90;;;;;;5095281;28;20482;-61
2023/01/20 01:53:08;;;;;;;162.52;116.57;;;0.40;99.90;;;;;;5095646;28;20024;-61
2023/01/20 01:55:40;;;;;;;137.13;102.72;;;0.40;99.90;;;;;;5095981;28;20375;-61
2023/01/20 01:58:10;;;;;;;27.92;19.35;;;0.40;99.90;;;;;;5095459;28;20016;-60
2023/01/20 02:00:37;;;;;;;187.02;145.07;;;0.20;99.90;;;;;;5095410;28;20058;-61
2023/01/20 02:03:04;;;;;;;159.68;120.90;;;0.30;99.90;;;;;;5095174;28;20020;-61
2023/01/20 02:05:31;;;;;;;200.27;161.57;;;0.30;99.90;;;;;;5095337;28;20504;-61
2023/01/20 02:07:58;;;;;;;374.77;318.58;;;0.20;99.90;;;;;;5095329;28;20051;-60
2023/01/20 02:10:24;;;;;;;102.25;80.63;;;0.10;99.90;;;;;;5095211;28;20051;-61
2023/01/20 02:12:51;;;;;;;7.55;6.03;;;0.00;99.90;;;;;;5095368;28;20078;-60
2023/01/20 02:15:21;;;;;;;695.78;592.35;;;0.00;99.90;;;;;;5095254;28;20107;-61
2023/01/20 02:17:52;;;;;;;338.60;268.23;;;0.00;99.90;;;;;;5095425;28;20020;-61
2023/01/20 02:20:49;;;;;;;46.78;38.47;;;0.00;99.90;;;;;;5095070;28;20107;-61
2023/01/20 02:23:27;;;;;;;8.82;5.38;;;-0.30;99.90;;;;;;5095172;28;20158;-61
2023/01/20 02:26:28;;;;;;;97.30;67.15;;;-0.30;99.90;;;;;;5095095;28;20118;-61
2023/01/20 02:29:34;;;;;;;12.43;9.55;;;-0.40;99.90;;;;;;5052551;28;20071;-61
2023/01/20 02:32:12;;;;;;;698.90;528.63;;;-0.50;99.90;;;;;;4992092;28;20115;-61
2023/01/20 02:35:02;;;;;;;131.75;96.72;;;-0.50;99.90;;;;;;4992958;28;20451;-61
2023/01/20 02:37:30;;;;;;;56.35;44.30;;;-0.70;99.90;;;;;;4993047;28;20049;-61
2023/01/20 02:40:17;;;;;;;21.23;16.40;;;-0.70;99.90;;;;;;4992957;28;20026;-61
2023/01/20 02:42:53;;;;;;;56.03;50.33;;;-0.20;99.90;;;;;;4993402;28;20038;-61
2023/01/20 02:45:43;;;;;;;99.80;90.50;;;-0.10;99.90;;;;;;4992965;28;20546;-60
2023/01/20 02:48:21;;;;;;;12.18;10.88;;;0.00;99.90;;;;;;4973435;28;20081;-60
2023/01/20 02:51:01;;;;;;;8.13;5.75;;;0.00;99.90;;;;;;4973410;28;20046;-61
2023/01/20 02:53:33;;;;;;;86.50;50.08;;;-0.20;99.90;;;;;;4973374;28;20030;-61
2023/01/20 02:55:59;;;;;;;18.70;16.33;;;-0.50;99.90;;;;;;4973326;28;20130;-61
2023/01/20 02:58:36;;;;;;;46.42;36.05;;;-0.70;99.90;;;;;;4973689;28;20106;-61
2023/01/20 03:01:24;;;;;;;31.63;27.85;;;-0.80;99.90;;;;;;4972502;28;20086;-61
2023/01/20 03:03:53;;;;;;;40.50;31.38;;;-1.00;99.90;;;;;;5065896;28;20029;-61
2023/01/20 03:06:23;;;;;;;53.45;40.72;;;-0.90;99.90;;;;;;5076076;28;20039;-61
2023/01/20 03:08:51;;;;;;;40.20;30.83;;;-1.00;99.90;;;;;;5094318;28;20434;-61
2023/01/20 03:11:18;;;;;;;17.27;14.73;;;-1.00;99.90;;;;;;5094155;28;20450;-61
2023/01/20 03:14:00;;;;;;;17.00;15.38;;;-0.70;99.90;;;;;;5094549;28;20028;-61
2023/01/20 03:16:27;;;;;;;10.48;9.40;;;-0.50;99.90;;;;;;5092192;28;20039;-61
2023/01/20 03:18:54;;;;;;;7.70;6.30;;;-0.70;99.90;;;;;;5094407;28;20119;-61
2023/01/20 03:21:20;;;;;;;8.07;6.82;;;-0.80;99.90;;;;;;5094030;28;20476;-61
2023/01/20 03:23:56;;;;;;;6.03;4.65;;;-0.80;99.90;;;;;;5094240;28;20052;-61
2023/01/20 03:26:22;;;;;;;6.97;6.20;;;-0.60;99.90;;;;;;5093971;28;20099;-61
2023/01/20 03:28:48;;;;;;;8.70;6.25;;;-0.60;99.90;;;;;;5093936;28;20031;-61
2023/01/20 03:31:20;;;;;;;7.15;5.53;;;-0.60;99.90;;;;;;5093383;28;20054;-61
2023/01/20 03:33:48;;;;;;;8.52;7.80;;;-0.50;99.90;;;;;;5093687;28;20039;-61
2023/01/20 03:36:17;;;;;;;13.20;12.13;;;-0.60;99.90;;;;;;5094416;28;20040;-61
2023/01/20 03:38:44;;;;;;;12.95;11.65;;;-0.70;99.90;;;;;;5093858;28;20031;-61
2023/01/20 03:41:25;;;;;;;10.20;9.18;;;-0.60;99.90;;;;;;5093991;28;20477;-60
2023/01/20 03:43:56;;;;;;;20.27;18.30;;;-0.60;99.90;;;;;;5092578;28;20114;-61
2023/01/20 03:46:52;;;;;;;11.85;9.75;;;-0.50;99.90;;;;;;5093293;28;20366;-61
2023/01/20 03:49:49;;;;;;;14.05;11.10;;;-0.60;99.90;;;;;;5070791;28;20171;-61
2023/01/20 03:52:24;;;;;;;13.48;10.65;;;-0.60;99.90;;;;;;5071320;28;20033;-61
2023/01/20 03:55:03;;;;;;;14.30;12.75;;;-0.60;99.90;;;;;;5070816;28;20088;-61
2023/01/20 03:57:37;;;;;;;18.75;16.80;;;-0.60;99.90;;;;;;5070933;28;20489;-61
2023/01/20 04:00:06;;;;;;;11.07;9.88;;;-0.60;99.90;;;;;;5070299;28;20048;-61
2023/01/20 04:02:32;;;;;;;15.27;11.88;;;-0.60;99.90;;;;;;5054390;28;20426;-61
2023/01/20 04:05:01;;;;;;;13.35;11.23;;;-0.70;99.90;;;;;;5070730;28;20055;-61
2023/01/20 04:07:29;;;;;;;10.60;7.93;;;-0.60;99.90;;;;;;5070431;28;20076;-61
2023/01/20 04:09:59;;;;;;;12.00;8.85;;;-0.50;99.90;;;;;;5070477;28;20056;-61
2023/01/20 04:12:25;;;;;;;11.57;9.13;;;-0.60;99.90;;;;;;5071339;28;20028;-60
2023/01/20 04:14:50;;;;;;;13.93;9.50;;;-0.40;99.90;;;;;;5070926;28;20068;-61
2023/01/20 04:17:16;;;;;;;11.38;8.82;;;-0.50;99.90;;;;;;5070542;28;20245;-61
2023/01/20 04:19:42;;;;;;;13.77;11.05;;;-0.60;99.90;;;;;;5070337;28;20109;-61
2023/01/20 04:22:15;;;;;;;12.90;10.38;;;-0.70;99.90;;;;;;5070449;28;20159;-61
2023/01/20 04:24:55;;;;;;;18.63;11.70;;;-0.90;99.90;;;;;;5070418;28;20039;-61
2023/01/20 04:27:21;;;;;;;14.98;11.00;;;-0.90;99.90;;;;;;5090000;28;20035;-61
2023/01/20 04:29:46;;;;;;;31.20;11.63;;;-0.90;99.90;;;;;;5093075;28;20020;-61
2023/01/20 04:32:12;;;;;;;13.00;10.00;;;-1.00;99.90;;;;;;5092591;28;20102;-60
2023/01/20 04:34:38;;;;;;;16.55;10.00;;;-0.90;99.90;;;;;;5092555;28;20032;-60
2023/01/20 04:37:04;;;;;;;10.70;7.57;;;-0.90;99.90;;;;;;5092828;28;20028;-61
2023/01/20 04:39:30;;;;;;;14.32;9.75;;;-0.90;99.90;;;;;;5092635;28;20389;-61
2023/01/20 04:41:55;;;;;;;13.38;9.40;;;-1.00;99.90;;;;;;5092194;28;20020;-61
2023/01/20 04:44:21;;;;;;;15.05;8.60;;;-1.00;99.90;;;;;;5092347;28;20427;-61
2023/01/20 04:46:47;;;;;;;12.90;10.10;;;-1.00;99.90;;;;;;5092719;28;20426;-61
2023/01/20 04:49:13;;;;;;;15.98;11.23;;;-0.90;99.90;;;;;;5092512;28;20074;-61
2023/01/20 04:51:39;;;;;;;17.83;13.95;;;-1.00;99.90;;;;;;5091896;28;20035;-61
2023/01/20 04:54:05;;;;;;;21.90;15.05;;;-1.10;99.90;;;;;;5092752;28;20012;-61
2023/01/20 04:56:31;;;;;;;15.43;10.88;;;-1.20;99.90;;;;;;5091821;28;20063;-61
2023/01/20 04:58:57;;;;;;;14.48;9.60;;;-1.30;99.90;;;;;;5092243;28;20024;-61
2023/01/20 05:01:23;;;;;;;10.93;8.65;;;-1.40;99.90;;;;;;5092331;28;20055;-61
2023/01/20 05:03:48;;;;;;;18.05;12.93;;;-1.50;99.90;;;;;;5092329;28;20058;-61
2023/01/20 05:06:14;;;;;;;11.93;8.55;;;-1.50;99.90;;;;;;5092512;28;20032;-61
2023/01/20 05:08:40;;;;;;;9.77;7.85;;;-1.30;99.90;;;;;;5092192;28;20451;-61
2023/01/20 05:11:06;;;;;;;9.00;8.10;;;-1.40;99.90;;;;;;5090428;28;20044;-61
2023/01/20 05:13:37;;;;;;;12.00;9.75;;;-1.60;99.90;;;;;;5092088;28;20035;-61
2023/01/20 05:16:03;;;;;;;11.38;9.60;;;-1.60;99.90;;;;;;5092078;28;20036;-61
2023/01/20 05:18:29;;;;;;;14.02;9.43;;;-1.60;99.90;;;;;;5092547;28;20070;-61
2023/01/20 05:20:55;;;;;;;14.50;9.75;;;-1.40;99.90;;;;;;5092436;28;20036;-61
2023/01/20 05:23:20;;;;;;;11.80;9.00;;;-1.40;99.90;;;;;;5092045;28;20024;-61
2023/01/20 05:25:52;;;;;;;11.23;7.50;;;-1.50;99.90;;;;;;5091792;28;20024;-61
2023/01/20 05:28:18;;;;;;;10.20;7.15;;;-1.30;99.90;;;;;;5092351;28;20484;-60
2023/01/20 05:30:45;;;;;;;9.95;7.82;;;-1.40;99.90;;;;;;5091896;28;20030;-61
2023/01/20 05:33:11;;;;;;;9.95;7.10;;;-1.40;99.90;;;;;;5091902;28;20024;-61
2023/01/20 05:35:37;;;;;;;8.05;6.70;;;-1.10;99.90;;;;;;5091843;28;20510;-61
2023/01/20 05:38:03;;;;;;;8.65;7.45;;;-1.20;99.90;;;;;;5092016;28;20069;-61
2023/01/20 05:40:28;;;;;;;12.18;8.40;;;-1.30;99.90;;;;;;5092013;28;20028;-61
2023/01/20 05:43:01;;;;;;;9.93;7.97;;;-1.20;99.90;;;;;;5091802;28;20032;-61
2023/01/20 05:45:28;;;;;;;12.27;8.27;;;-1.40;99.90;;;;;;5091820;28;20023;-61
2023/01/20 05:47:58;;;;;;;10.45;8.02;;;-1.60;99.90;;;;;;5092147;28;20028;-61
2023/01/20 05:50:24;;;;;;;9.07;6.60;;;-1.80;99.90;;;;;;5091852;28;20119;-61
2023/01/20 05:52:50;;;;;;;8.23;6.60;;;-1.60;99.90;;;;;;5091707;28;20020;-61
2023/01/20 05:55:16;;;;;;;10.05;8.50;;;-1.70;99.90;;;;;;5091432;28;20555;-61
2023/01/20 05:57:42;;;;;;;11.32;7.78;;;-1.70;99.90;;;;;;5092047;28;20020;-60
2023/01/20 06:00:08;;;;;;;11.88;9.15;;;-1.60;99.90;;;;;;5091748;28;20028;-61
2023/01/20 06:02:34;;;;;;;16.77;12.35;;;-1.50;99.90;;;;;;5091638;28;20040;-60
2023/01/20 06:05:00;;;;;;;16.75;11.48;;;-1.50;99.90;;;;;;5091855;28;20489;-60
2023/01/20 06:07:28;;;;;;;15.20;11.00;;;-1.40;99.90;;;;;;5092105;28;20032;-61
2023/01/20 06:09:53;;;;;;;14.93;10.18;;;-1.30;99.90;;;;;;5094937;28;20572;-61
2023/01/20 06:12:19;;;;;;;20.58;14.82;;;-1.10;99.90;;;;;;5095665;28;20099;-60
2023/01/20 06:14:45;;;;;;;25.30;14.48;;;-1.20;99.90;;;;;;5095300;28;20040;-61
2023/01/20 06:17:11;;;;;;;23.88;16.02;;;-1.50;99.90;;;;;;5095347;28;20055;-60
2023/01/20 06:19:36;;;;;;;25.33;15.40;;;-1.50;99.90;;;;;;5095167;28;20031;-60
2023/01/20 06:22:02;;;;;;;20.30;13.57;;;-1.50;99.90;;;;;;5095284;28;20031;-61
2023/01/20 06:24:28;;;;;;;22.15;15.90;;;-1.40;99.90;;;;;;5095137;28;20111;-61
2023/01/20 06:26:54;;;;;;;22.58;14.68;;;-1.40;99.90;;;;;;5093917;28;20118;-60
2023/01/20 06:29:20;;;;;;;19.33;13.27;;;-1.70;99.90;;;;;;5095183;28;20028;-60
2023/01/20 06:31:46;;;;;;;24.65;13.80;;;-1.80;99.90;;;;;;5095061;28;20069;-61
2023/01/20 06:34:12;;;;;;;15.18;11.05;;;-1.60;99.90;;;;;;5095269;28;20028;-60
2023/01/20 06:36:38;;;;;;;15.27;11.38;;;-1.70;99.90;;;;;;5094813;28;20044;-61
2023/01/20 06:39:04;;;;;;;18.13;10.82;;;-1.90;99.90;;;;;;5094562;28;20060;-60
2023/01/20 06:41:30;;;;;;;10.80;9.20;;;-1.80;99.90;;;;;;5094778;28;20115;-61
2023/01/20 06:43:56;;;;;;;11.05;8.60;;;-1.50;99.90;;;;;;5094741;28;20103;-60
2023/01/20 06:46:22;;;;;;;11.27;9.02;;;-1.60;99.90;;;;;;5094706;28;20032;-60
2023/01/20 06:48:48;;;;;;;11.90;8.38;;;-1.80;99.90;;;;;;5095091;28;20027;-60
2023/01/20 06:51:17;;;;;;;9.32;8.00;;;-2.00;99.90;;;;;;5094584;28;20029;-61
2023/01/20 06:53:43;;;;;;;9.77;8.52;;;-1.90;99.90;;;;;;5094238;28;20051;-60
2023/01/20 06:56:10;;;;;;;17.38;14.68;;;-1.90;99.90;;;;;;5094477;28;20036;-60
2023/01/20 06:58:36;;;;;;;12.13;9.68;;;-1.70;99.90;;;;;;5094499;28;20469;-60
2023/01/20 07:01:22;;;;;;;13.45;10.13;;;-1.70;99.90;;;;;;5094586;28;20070;-60
2023/01/20 07:03:47;;;;;;;18.17;14.88;;;-1.90;99.90;;;;;;5094506;28;20024;-60
2023/01/20 07:06:31;;;;;;;16.05;13.85;;;-1.90;99.90;;;;;;5094124;28;20024;-60
2023/01/20 07:08:58;;;;;;;19.08;15.75;;;-1.90;99.90;;;;;;5093731;28;20039;-60
2023/01/20 07:11:24;;;;;;;16.17;13.75;;;-1.80;99.90;;;;;;5094569;28;20025;-60
2023/01/20 07:13:50;;;;;;;15.00;12.75;;;-1.80;99.90;;;;;;5094301;28;20028;-60
2023/01/20 07:16:16;;;;;;;15.30;12.05;;;-1.90;99.90;;;;;;5094207;28;20103;-60
2023/01/20 07:18:43;;;;;;;12.60;9.45;;;-2.20;99.90;;;;;;5093957;28;20410;-61
2023/01/20 07:21:10;;;;;;;11.18;8.55;;;-1.90;99.90;;;;;;5094140;28;20054;-59
2023/01/20 07:23:36;;;;;;;10.38;8.43;;;-1.90;99.90;;;;;;5093444;28;20047;-60
2023/01/20 07:26:08;;;;;;;10.30;8.15;;;-2.10;99.90;;;;;;5094097;28;20016;-59
2023/01/20 07:28:34;;;;;;;9.35;8.30;;;-1.90;99.90;;;;;;5093279;28;20047;-60
2023/01/20 07:31:07;;;;;;;19.48;16.15;;;-2.00;99.90;;;;;;5090486;28;20095;-61
2023/01/20 07:33:33;;;;;;;11.90;10.70;;;-2.20;99.90;;;;;;5092813;28;20027;-60
2023/01/20 07:36:00;;;;;;;22.80;17.05;;;-2.40;99.90;;;;;;5092633;28;20402;-61
2023/01/20 07:38:26;;;;;;;37.42;25.80;;;-2.40;99.90;;;;;;5092688;28;20028;-61
2023/01/20 07:40:51;;;;;;;33.67;24.38;;;-2.30;99.90;;;;;;5093546;28;20035;-61
2023/01/20 07:43:17;;;;;;;20.92;17.58;;;-2.30;99.90;;;;;;5093243;28;20476;-61
2023/01/20 07:45:43;;;;;;;21.60;16.55;;;-2.20;99.90;;;;;;5093376;28;20093;-59
2023/01/20 07:48:09;;;;;;;25.02;18.27;;;-2.20;99.90;;;;;;5093521;28;20085;-59
2023/01/20 07:50:35;;;;;;;61.50;42.55;;;-2.30;99.90;;;;;;5092881;28;20043;-59
2023/01/20 07:53:02;;;;;;;51.78;36.58;;;-2.20;99.90;;;;;;5090151;28;20047;-60
2023/01/20 07:55:27;;;;;;;27.65;22.90;;;-1.90;99.90;;;;;;5092840;28;20024;-60
2023/01/20 07:57:54;;;;;;;23.77;21.17;;;-1.70;99.90;;;;;;5092629;28;20034;-60
2023/01/20 08:00:21;;;;;;;32.38;28.83;;;-1.50;99.90;;;;;;5092421;28;20081;-60
2023/01/20 08:02:46;;;;;;;30.70;25.67;;;-1.40;99.90;;;;;;5093259;28;20564;-60
2023/01/20 08:05:12;;;;;;;31.88;28.25;;;-1.20;99.90;;;;;;5092511;28;20105;-60
2023/01/20 08:07:38;;;;;;;46.38;37.35;;;-1.00;99.90;;;;;;5092792;28;20362;-59
2023/01/20 08:10:04;;;;;;;59.15;41.85;;;-1.00;99.90;;;;;;5092863;28;20048;-60
2023/01/20 08:12:30;;;;;;;66.45;45.03;;;-0.90;99.90;;;;;;5092911;28;20063;-61
2023/01/20 08:14:55;;;;;;;51.85;39.17;;;-0.80;99.90;;;;;;5093227;28;20507;-60
2023/01/20 08:17:22;;;;;;;47.47;37.00;;;-0.70;99.90;;;;;;5092739;28;20048;-61
2023/01/20 08:19:48;;;;;;;46.85;34.25;;;-0.70;99.90;;;;;;5092550;28;20016;-60
2023/01/20 08:22:15;;;;;;;46.60;33.08;;;-0.60;99.90;;;;;;5092780;28;20032;-61
2023/01/20 08:24:40;;;;;;;67.40;25.75;;;-0.50;99.90;;;;;;5092784;28;20469;-60
2023/01/20 08:27:06;;;;;;;61.60;23.88;;;-0.30;99.90;;;;;;5092905;28;20027;-61
2023/01/20 08:29:32;;;;;;;118.50;24.45;;;-0.20;99.90;;;;;;5092842;28;20046;-61
2023/01/20 08:32:01;;;;;;;151.63;29.48;;;-0.10;99.90;;;;;;5092519;28;20039;-61
2023/01/20 08:34:27;;;;;;;174.18;30.65;;;0.10;99.90;;;;;;5092015;28;20035;-61
2023/01/20 08:36:56;;;;;;;217.88;31.17;;;0.10;99.90;;;;;;5092787;28;20032;-60
2023/01/20 08:39:22;;;;;;;141.43;28.10;;;0.30;99.90;;;;;;5092576;28;20027;-61
2023/01/20 08:41:49;;;;;;;161.57;28.17;;;0.40;99.90;;;;;;5092606;28;20433;-61
2023/01/20 08:44:15;;;;;;;196.00;23.67;;;0.30;99.90;;;;;;5092474;28;20098;-61
2023/01/20 08:46:42;;;;;;;161.80;24.20;;;0.30;99.90;;;;;;5092320;28;20028;-61
2023/01/20 08:49:13;;;;;;;221.50;30.77;;;0.40;99.90;;;;;;5092183;28;20070;-61
2023/01/20 08:51:39;;;;;;;182.77;26.75;;;0.40;99.90;;;;;;5092642;28;20043;-61
2023/01/20 08:54:05;;;;;;;143.20;26.25;;;0.40;99.90;;;;;;5092312;28;20026;-60
2023/01/20 08:56:30;;;;;;;124.43;23.23;;;0.40;99.90;;;;;;5092371;28;20032;-61
2023/01/20 08:58:57;;;;;;;144.10;26.35;;;0.50;99.90;;;;;;5092340;28;20024;-61
2023/01/20 09:01:26;;;;;;;106.72;23.05;;;0.50;99.90;;;;;;5092270;28;20029;-61
2023/01/20 09:03:52;;;;;;;84.75;23.58;;;0.70;99.90;;;;;;5092327;28;20028;-61
2023/01/20 09:06:20;;;;;;;102.95;28.23;;;0.70;99.90;;;;;;5092148;28;20032;-61
2023/01/20 09:08:46;;;;;;;59.60;23.92;;;0.70;99.90;;;;;;5092190;28;20047;-61
2023/01/20 09:11:15;;;;;;;100.32;30.38;;;0.90;99.90;;;;;;5092142;28;20093;-61
2023/01/20 09:13:41;;;;;;;100.90;29.75;;;0.90;99.90;;;;;;5092670;28;20082;-61
2023/01/20 09:16:09;;;;;;;66.13;29.83;;;1.00;99.90;;;;;;5092123;28;20036;-61
2023/01/20 09:18:35;;;;;;;57.75;31.67;;;1.00;99.90;;;;;;5091872;28;20027;-61
2023/01/20 09:21:05;;;;;;;61.08;32.58;;;1.20;99.90;;;;;;5092140;28;20461;-61
2023/01/20 09:23:32;;;;;;;57.20;32.78;;;1.20;99.90;;;;;;5092501;28;20115;-61
2023/01/20 09:26:03;;;;;;;59.83;39.08;;;1.30;99.90;;;;;;5091646;28;20043;-61
2023/01/20 09:28:30;;;;;;;54.72;26.00;;;1.30;99.90;;;;;;5092406;28;20027;-61
2023/01/20 09:31:00;;;;;;;61.42;22.60;;;1.40;99.90;;;;;;5092070;28;20539;-61
2023/01/20 09:33:26;;;;;;;33.08;20.85;;;1.50;99.90;;;;;;5091488;28;20081;-61
2023/01/20 09:35:56;;;;;;;32.40;20.42;;;1.60;99.90;;;;;;5092050;28;20040;-61
2023/01/20 09:44:46;;;;;;;24.75;19.60;;;1.80;99.90;;;;;;5095930;28;20035;-61
2023/01/20 09:47:18;;;;;;;22.98;17.90;;;1.70;99.90;;;;;;5095734;28;20024;-61
2023/01/20 09:53:04;;;;;;;20.08;16.38;;;1.70;99.90;;;;;;5095997;28;20074;-61
2023/01/20 09:55:41;;;;;;;;;;;1.80;99.90;;;;;;5096095;28;20127;-61
2023/01/20 09:58:44;;;;;;;22.13;18.65;;;1.90;99.90;;;;;;5095629;28;19915;-61
2023/01/20 10:01:29;;;;;;;18.23;15.27;;;2.00;99.90;;;;;;5094000;28;20443;-61
2023/01/20 10:04:06;;;;;;;19.17;17.15;;;1.80;99.90;;;;;;5095513;28;20048;-61
2023/01/20 10:06:38;;;;;;;18.95;15.38;;;1.90;99.90;;;;;;5095351;28;20027;-61
2023/01/20 10:09:30;;;;;;;20.27;16.02;;;1.90;99.90;;;;;;5095316;28;20020;-61
2023/01/20 10:12:12;;;;;;;17.67;15.32;;;2.00;99.90;;;;;;5089775;28;20040;-61
2023/01/20 10:14:41;;;;;;;14.95;13.40;;;2.00;99.90;;;;;;5094338;28;20126;-60
2023/01/20 10:17:15;;;;;;;17.67;15.75;;;2.10;99.90;;;;;;5093542;28;20020;-61
2023/01/20 10:19:51;;;;;;;18.80;14.60;;;2.10;99.90;;;;;;5095607;28;20016;-60
2023/01/20 10:22:20;;;;;;;19.58;14.85;;;2.00;99.90;;;;;;5095196;28;20210;-60
2023/01/20 10:24:51;;;;;;;15.88;14.18;;;2.10;99.90;;;;;;5095401;28;20025;-61
2023/01/20 10:27:17;;;;;;;17.02;13.10;;;2.10;99.90;;;;;;5095605;28;20031;-60
2023/01/20 10:29:57;;;;;;;14.80;13.30;;;2.30;99.90;;;;;;5094747;28;20024;-60
2023/01/20 10:32:35;;;;;;;15.30;13.68;;;2.40;99.90;;;;;;5094972;28;20035;-61
2023/01/20 10:35:14;;;;;;;15.77;13.95;;;2.30;99.90;;;;;;5095276;28;20036;-61
2023/01/20 10:37:40;;;;;;;15.50;13.20;;;2.40;99.90;;;;;;5094870;28;20035;-60
2023/01/20 10:40:24;;;;;;;12.32;11.00;;;2.90;99.90;;;;;;5094988;28;20081;-60
2023/01/20 10:42:55;;;;;;;12.60;11.27;;;2.60;99.90;;;;;;5094969;28;20070;-60
2023/01/20 10:45:49;;;;;;;12.35;11.05;;;2.40;99.90;;;;;;5094781;28;20028;-60
2023/01/20 10:48:42;;;;;;;13.20;11.68;;;2.60;99.90;;;;;;5070094;28;20135;-60
2023/01/20 10:51:30;;;;;;;14.55;11.90;;;2.70;99.90;;;;;;5052033;28;20037;-61
2023/01/20 10:54:21;;;;;;;14.65;10.90;;;2.90;99.90;;;;;;4992682;28;20034;-60
2023/01/20 10:56:52;;;;;;;15.30;11.98;;;2.70;99.90;;;;;;4992843;28;20450;-61
2023/01/20 10:59:40;;;;;;;14.88;12.80;;;2.50;99.90;;;;;;4976061;28;20531;-60
2023/01/20 11:02:27;;;;;;;14.13;11.82;;;2.50;99.90;;;;;;4992522;28;20045;-61
2023/01/20 11:04:58;;;;;;;12.80;11.50;;;2.80;99.90;;;;;;4992676;28;20033;-60
2023/01/20 11:07:26;;;;;;;13.93;10.95;;;3.10;99.90;;;;;;4992790;28;20030;-60
2023/01/20 11:09:52;;;;;;;15.70;12.00;;;2.60;99.90;;;;;;4992082;28;20043;-60
2023/01/20 11:12:29;;;;;;;15.32;11.90;;;2.60;99.90;;;;;;4992905;28;20764;-60
2023/01/20 11:14:58;;;;;;;15.25;11.32;;;2.80;99.90;;;;;;4992095;28;20049;-60
2023/01/20 11:17:24;;;;;;;11.45;9.88;;;2.90;99.90;;;;;;4992439;28;20044;-60
2023/01/20 11:19:52;;;;;;;12.15;10.95;;;2.80;99.90;;;;;;4992497;28;20034;-60
2023/01/20 11:22:36;;;;;;;13.25;11.50;;;2.90;99.90;;;;;;4992296;28;20492;-60
2023/01/20 11:25:04;;;;;;;11.60;10.32;;;2.70;99.90;;;;;;4992395;28;20085;-60
2023/01/20 11:27:44;;;;;;;12.65;11.05;;;3.00;99.90;;;;;;4999086;28;20041;-60
2023/01/20 11:30:32;;;;;;;11.07;9.80;;;3.30;99.90;;;;;;5027207;28;20519;-60
2023/01/20 11:33:20;;;;;;;12.30;9.77;;;3.20;99.90;;;;;;5093806;28;20032;-60
2023/01/20 11:36:03;;;;;;;10.60;9.50;;;3.10;99.90;;;;;;5093867;28;20069;-61
2023/01/20 11:38:50;;;;;;;15.95;10.93;;;3.30;99.90;;;;;;5093948;28;20020;-60
2023/01/20 11:41:28;;;;;;;12.43;10.68;;;3.20;99.90;;;;;;5093423;28;20555;-60
2023/01/20 11:43:57;;;;;;;12.35;11.05;;;3.20;99.90;;;;;;5093532;28;20119;-60
2023/01/20 11:46:24;;;;;;;12.60;10.50;;;3.10;99.90;;;;;;5093567;28;20016;-60
2023/01/20 11:49:15;;;;;;;14.02;10.32;;;3.50;99.90;;;;;;5093643;28;20503;-60
2023/01/20 11:51:55;;;;;;;11.77;10.35;;;3.60;99.90;;;;;;5093871;28;20112;-60
2023/01/20 11:54:27;;;;;;;12.27;9.50;;;3.40;99.90;;;;;;5093431;28;20031;-60
2023/01/20 11:57:06;;;;;;;11.85;10.52;;;3.80;99.90;;;;;;5093058;28;20032;-61
2023/01/20 11:59:34;;;;;;;12.77;8.93;;;4.20;99.90;;;;;;5093151;28;20024;-60
2023/01/20 12:02:07;;;;;;;11.00;8.73;;;4.10;99.90;;;;;;5093580;28;20515;-60
2023/01/20 12:05:16;;;;;;;12.98;8.95;;;3.60;99.90;;;;;;5093046;28;20082;-60
2023/01/20 12:07:44;;;;;;;10.00;8.00;;;3.80;99.90;;;;;;5092979;28;20388;-60
2023/01/20 12:10:36;;;;;;;10.45;7.85;;;3.70;99.90;;;;;;5093335;28;20507;-60
2023/01/20 12:13:18;;;;;;;10.40;7.85;;;3.50;99.90;;;;;;5092755;28;20031;-60
2023/01/20 12:15:51;;;;;;;9.65;7.75;;;3.90;99.90;;;;;;5093032;28;20132;-60
2023/01/20 12:18:17;;;;;;;;;;;4.40;99.90;;;;;;5093700;28;20028;-60
2023/01/20 12:20:42;;;;;;;8.48;6.63;;;5.00;99.90;;;;;;5092928;28;19910;-60
2023/01/20 12:23:38;;;;;;;7.97;6.60;;;4.90;99.90;;;;;;5092860;28;20052;-60
2023/01/20 12:26:05;;;;;;;9.10;6.20;;;4.50;99.90;;;;;;5090254;28;20107;-60
2023/01/20 12:29:08;;;;;;;8.05;5.80;;;4.70;99.90;;;;;;5091491;28;20408;-60
2023/01/20 12:31:34;;;;;;;8.55;6.50;;;4.20;99.90;;;;;;5092737;28;20491;-60
2023/01/20 12:34:04;;;;;;;7.13;5.63;;;4.20;99.90;;;;;;5092635;28;20030;-60
2023/01/20 12:36:56;;;;;;;10.05;7.05;;;4.30;99.90;;;;;;5093172;28;20043;-60
2023/01/20 12:39:33;;;;;;;10.13;8.10;;;5.00;99.90;;;;;;5092978;28;20028;-60
2023/01/20 12:42:09;;;;;;;11.27;8.95;;;5.10;99.90;;;;;;5092169;28;20020;-60
2023/01/20 12:45:21;;;;;;;11.07;9.95;;;5.40;99.90;;;;;;5092621;28;20085;-60
2023/01/20 12:48:18;;;;;;;7.63;6.82;;;5.50;99.90;;;;;;5069249;28;20031;-60
2023/01/20 12:51:04;;;;;;;7.50;5.65;;;5.70;99.90;;;;;;5069999;28;20060;-61
2023/01/20 12:53:38;;;;;;;6.38;5.03;;;6.20;99.90;;;;;;5069945;28;20025;-61
2023/01/20 12:56:16;;;;;;;6.75;4.95;;;6.50;99.90;;;;;;5052796;28;20064;-61
2023/01/20 12:59:07;;;;;;;9.68;5.43;;;6.00;99.90;;;;;;5069729;28;20040;-61
2023/01/20 13:01:48;;;;;;;6.03;5.35;;;6.20;99.90;;;;;;5069792;28;20028;-60
2023/01/20 13:04:56;;;;;;;8.23;5.63;;;5.80;99.90;;;;;;5070358;28;20042;-61